Date,TemperatureHighF,TemperatureAvgF,TemperatureLowF,DewpointHighF,DewpointAvgF,DewpointLowF,HumidityHigh,HumidityAvg,HumidityLow,PressureMaxIn,PressureMinIn,WindSpeedMaxMPH,WindSpeedAvgMPH,GustSpeedMaxMPH,PrecipitationSumIn
2013-9-1,82,70,58,60,54,47,91,60,31,29.56,29.47,11,2,13,0.00
2013-9-2,83,68,58,62,56,47,94,68,30,29.59,29.47,10,2,13,0.00
2013-9-3,85,69,55,58,48,32,85,54,16,29.59,29.50,10,2,13,0.00
2013-9-4,83,70,57,60,52,40,90,57,22,29.59,29.41,12,2,12,0.00
2013-9-5,84,70,56,55,48,41,80,50,23,29.44,29.26,10,2,11,0.00
2013-9-6,82,68,55,64,54,44,93,64,29,29.32,29.23,12,2,17,0.00
2013-9-7,77,66,62,72,64,61,98,92,60,29.41,29.29,8,1,11,0.99
2013-9-8,77,66,59,67,62,56,98,90,51,29.56,29.35,10,2,11,0.21
2013-9-9,73,66,61,64,59,55,98,82,55,29.59,29.53,12,2,14,0.00
2013-9-10,78,64,58,65,59,47,98,85,37,29.56,29.41,13,2,15,1.37
2013-9-11,69,62,59,60,57,48,98,87,50,29.53,29.41,9,1,11,15.84
2013-9-12,71,63,56,61,56,50,98,80,48,29.56,29.47,10,1,13,0.04
2013-9-13,74,66,57,62,57,50,96,75,44,29.59,29.53,8,2,12,0.00
2013-9-14,79,69,58,63,60,54,98,75,41,29.59,29.35,13,3,17,0.00
2013-9-15,69,66,64,64,61,58,94,84,76,29.41,29.29,5,1,9,0.00
2013-9-16,80,68,61,62,54,37,95,65,22,29.38,29.14,11,2,13,0.00
2013-9-17,71,65,60,59,54,46,80,67,43,29.35,29.17,10,2,13,0.00
2013-9-18,77,66,55,60,54,44,95,68,33,29.35,29.23,9,2,10,0.00
2013-9-19,78,66,56,62,57,52,95,74,42,29.35,29.23,10,2,13,0.00
2013-9-20,79,68,57,62,54,48,91,64,35,29.50,29.35,10,1,14,0.00
2013-9-21,79,68,59,61,55,50,90,65,42,29.59,29.47,8,2,12,0.00
2013-9-22,77,66,58,63,54,42,96,69,32,29.65,29.53,9,1,10,0.00
2013-9-23,76,65,53,60,54,50,96,71,41,29.59,29.44,9,2,13,0.00
2013-9-24,77,67,56,64,58,53,96,76,45,29.47,29.32,10,2,13,0.00
2013-9-25,78,69,59,66,61,57,98,78,49,29.35,29.26,13,2,15,0.00
2013-9-26,82,70,59,66,62,57,98,79,44,29.35,29.29,11,3,17,0.00
2013-9-27,86,72,63,66,52,40,95,56,20,29.35,29.20,12,4,13,0.00
2013-9-28,76,68,60,65,57,45,85,67,54,29.23,29.03,10,2,13,0.00
2013-9-29,81,70,62,60,51,43,91,54,26,29.12,29.00,13,4,15,0.00
2013-9-30,82,69,57,55,50,45,83,54,29,29.14,29.00,15,3,20,0.00